Time;durP1;ratioP1;P1;durP2;ratioP2;P2;SDS_P1;SDS_P2;PMS_P1;PMS_P2;Temp;Humidity;BMP_temperature;BMP_pressure;BME280_temperature;BME280_humidity;BME280_pressure;Samples;Min_cycle;Max_cycle;Signal;HPM_P1;HPM_P2
2023/02/04 00:00:48;;;;;;;0.30;0.30;;;4.40;99.90;;;;;;4421933;32;20104;-60
2023/02/04 00:03:15;;;;;;;0.40;0.40;;;4.40;99.90;;;;;;4422147;32;20065;-62
2023/02/04 00:05:40;;;;;;;0.40;0.40;;;4.50;99.90;;;;;;4409159;32;20661;-61
2023/02/04 00:08:06;;;;;;;0.45;0.45;;;4.50;99.90;;;;;;4408052;32;20121;-60
2023/02/04 00:10:32;;;;;;;0.30;0.30;;;4.50;99.90;;;;;;4422698;32;20156;-61
2023/02/04 00:12:57;;;;;;;0.50;0.50;;;4.40;99.90;;;;;;4409561;32;20098;-61
2023/02/04 00:15:23;;;;;;;0.45;0.45;;;4.40;99.90;;;;;;4422504;32;20085;-61
2023/02/04 00:17:48;;;;;;;4.05;0.90;;;4.40;99.90;;;;;;4422905;32;20065;-61
2023/02/04 00:20:14;;;;;;;0.35;0.35;;;4.50;99.90;;;;;;4421582;32;20448;-62
2023/02/04 00:22:39;;;;;;;0.35;0.35;;;4.40;99.90;;;;;;4420010;32;20443;-61
2023/02/04 00:25:05;;;;;;;0.40;0.40;;;4.40;99.90;;;;;;4410298;32;20066;-61
2023/02/04 00:27:31;;;;;;;0.55;0.55;;;4.40;99.90;;;;;;4409808;32;20085;-62
2023/02/04 00:29:56;;;;;;;0.35;0.35;;;4.40;99.90;;;;;;4410410;32;20136;-60
2023/02/04 00:32:22;;;;;;;0.50;0.50;;;4.40;99.90;;;;;;4408851;32;20062;-61
2023/02/04 00:34:48;;;;;;;0.40;0.40;;;4.40;99.90;;;;;;4409719;32;20066;-61
2023/02/04 00:37:13;;;;;;;0.35;0.35;;;4.40;99.90;;;;;;4393342;32;20101;-61
2023/02/04 00:39:39;;;;;;;0.30;0.30;;;4.50;99.90;;;;;;4410387;32;20090;-61
2023/02/04 00:42:05;;;;;;;0.40;0.40;;;4.50;99.90;;;;;;4410468;32;20121;-61
2023/02/04 00:44:30;;;;;;;0.50;0.50;;;4.40;99.90;;;;;;4396304;32;20085;-61
2023/02/04 00:46:56;;;;;;;0.40;0.40;;;4.30;99.90;;;;;;4411297;32;20421;-61
2023/02/04 00:49:22;;;;;;;0.40;0.40;;;4.30;99.90;;;;;;4410025;32;20459;-61
2023/02/04 00:51:47;;;;;;;0.40;0.40;;;4.30;99.90;;;;;;4409500;32;20644;-62
2023/02/04 00:54:14;;;;;;;0.65;0.65;;;4.30;99.90;;;;;;4411775;32;20097;-61
2023/02/04 00:56:41;;;;;;;0.37;0.37;;;4.20;99.90;;;;;;4395401;32;20062;-61
2023/02/04 00:59:07;;;;;;;0.40;0.40;;;4.20;99.90;;;;;;4409510;32;20086;-62
2023/02/04 01:01:33;;;;;;;0.40;0.40;;;4.10;99.90;;;;;;4410355;32;20554;-61
2023/02/04 01:03:58;;;;;;;0.40;0.40;;;3.90;99.90;;;;;;4397514;32;20093;-60
2023/02/04 01:06:24;;;;;;;0.82;0.82;;;4.00;99.90;;;;;;4394516;32;21107;-61
2023/02/04 01:08:50;;;;;;;0.75;0.60;;;3.90;99.90;;;;;;4409304;32;20082;-62
2023/02/04 01:11:15;;;;;;;0.50;0.50;;;3.90;99.90;;;;;;4409519;32;21612;-60
2023/02/04 01:13:41;;;;;;;0.40;0.40;;;3.80;99.90;;;;;;4411176;32;20073;-60
2023/02/04 01:16:06;;;;;;;0.40;0.40;;;3.90;99.90;;;;;;4408224;32;20082;-61
2023/02/04 01:18:32;;;;;;;0.32;0.32;;;3.90;99.90;;;;;;4407993;32;20093;-61
2023/02/04 01:20:57;;;;;;;0.45;0.45;;;3.90;99.90;;;;;;4408132;32;20078;-61
2023/02/04 01:23:23;;;;;;;0.40;0.40;;;3.80;99.90;;;;;;4416329;32;20093;-61
2023/02/04 01:25:48;;;;;;;0.40;0.40;;;3.60;99.90;;;;;;4426333;32;20085;-61
2023/02/04 01:28:14;;;;;;;0.50;0.50;;;3.80;99.90;;;;;;4425150;32;20474;-60
2023/02/04 01:30:39;;;;;;;0.37;0.37;;;3.70;99.90;;;;;;4427238;32;20073;-61
2023/02/04 01:33:05;;;;;;;0.40;0.40;;;3.70;99.90;;;;;;4425580;32;20521;-62
2023/02/04 01:35:30;;;;;;;0.55;0.55;;;3.60;99.90;;;;;;4423347;32;20572;-61
2023/02/04 01:37:55;;;;;;;0.37;0.37;;;3.60;99.90;;;;;;4423010;32;20081;-61
2023/02/04 01:40:21;;;;;;;0.45;0.45;;;3.70;99.90;;;;;;4423883;32;20074;-61
2023/02/04 01:42:47;;;;;;;0.40;0.40;;;3.70;99.90;;;;;;4424291;32;20065;-61
2023/02/04 01:45:12;;;;;;;0.35;0.35;;;3.60;99.90;;;;;;4424740;32;20575;-60
2023/02/04 01:47:38;;;;;;;0.40;0.40;;;3.50;99.90;;;;;;4424442;32;20525;-61
2023/02/04 01:50:05;;;;;;;0.40;0.40;;;3.60;99.90;;;;;;4424810;32;20074;-61
2023/02/04 01:52:35;;;;;;;0.40;0.40;;;3.50;99.90;;;;;;4409707;32;20069;-62
2023/02/04 01:55:01;;;;;;;0.40;0.40;;;3.50;99.90;;;;;;4409839;32;20422;-61
2023/02/04 01:57:27;;;;;;;0.40;0.40;;;3.50;99.90;;;;;;4425115;32;20061;-61
2023/02/04 01:59:54;;;;;;;0.40;0.40;;;3.50;99.90;;;;;;4424624;32;20057;-61
2023/02/04 02:02:39;;;;;;;0.40;0.40;;;3.50;99.90;;;;;;4411193;32;20472;-61
2023/02/04 02:05:06;;;;;;;0.30;0.30;;;3.50;99.90;;;;;;4421565;32;20077;-62
2023/02/04 02:07:31;;;;;;;0.40;0.40;;;3.50;99.90;;;;;;4408813;32;20528;-61
2023/02/04 02:09:57;;;;;;;0.40;0.40;;;3.50;99.90;;;;;;4424716;32;20065;-62
2023/02/04 02:12:22;;;;;;;0.40;0.40;;;3.50;99.90;;;;;;4425156;32;20062;-60
2023/02/04 02:14:48;;;;;;;1.65;1.25;;;3.50;99.90;;;;;;4425393;32;20096;-61
2023/02/04 02:17:13;;;;;;;0.30;0.30;;;3.30;99.90;;;;;;4424751;32;20521;-62
2023/02/04 02:19:41;;;;;;;0.40;0.40;;;3.30;99.90;;;;;;4424997;32;20053;-61
2023/02/04 02:22:17;;;;;;;0.30;0.30;;;3.40;99.90;;;;;;4408896;32;20077;-61
2023/02/04 02:24:42;;;;;;;0.40;0.40;;;3.30;99.90;;;;;;4410327;32;20062;-61
2023/02/04 02:27:10;;;;;;;0.40;0.40;;;3.30;99.90;;;;;;4424665;32;20092;-60
2023/02/04 02:29:38;;;;;;;0.50;0.50;;;3.30;99.90;;;;;;4423229;32;20085;-61
2023/02/04 02:32:03;;;;;;;0.45;0.45;;;3.40;99.90;;;;;;4407630;32;20090;-61
2023/02/04 02:34:29;;;;;;;0.55;0.55;;;3.40;99.90;;;;;;4410081;32;20065;-61
2023/02/04 02:36:56;;;;;;;0.40;0.40;;;3.50;99.90;;;;;;4420555;32;20422;-62
2023/02/04 02:39:22;;;;;;;0.40;0.40;;;3.40;99.90;;;;;;4407975;32;20122;-61
2023/02/04 02:41:47;;;;;;;0.77;0.77;;;3.40;99.90;;;;;;4424313;32;20128;-61
2023/02/04 02:44:15;;;;;;;0.40;0.40;;;3.50;99.90;;;;;;4424132;32;20076;-60
2023/02/04 02:46:40;;;;;;;0.50;0.50;;;3.50;99.90;;;;;;4423757;32;20074;-60
2023/02/04 02:49:11;;;;;;;0.30;0.30;;;3.40;99.90;;;;;;4424624;32;20074;-62
2023/02/04 02:51:36;;;;;;;1.20;0.85;;;3.40;99.90;;;;;;4423381;32;20390;-62
2023/02/04 02:54:02;;;;;;;0.40;0.40;;;3.40;99.90;;;;;;4424790;32;20094;-60
2023/02/04 02:56:27;;;;;;;0.50;0.50;;;3.30;99.90;;;;;;4422617;32;21639;-62
2023/02/04 02:58:53;;;;;;;0.30;0.30;;;3.30;99.90;;;;;;4424804;32;20077;-61
2023/02/04 03:01:18;;;;;;;0.40;0.40;;;3.40;99.90;;;;;;4423410;32;20140;-60
2023/02/04 03:03:48;;;;;;;0.37;0.37;;;3.40;99.90;;;;;;4409657;32;20133;-61
2023/02/04 03:06:19;;;;;;;0.40;0.40;;;3.40;99.90;;;;;;4407851;32;20065;-61
2023/02/04 03:08:45;;;;;;;0.40;0.40;;;3.30;99.90;;;;;;4409271;32;20069;-59
2023/02/04 03:11:11;;;;;;;0.40;0.40;;;3.20;99.90;;;;;;4409746;32;20065;-61
2023/02/04 03:13:36;;;;;;;0.40;0.40;;;3.10;99.90;;;;;;4421420;32;20411;-61
2023/02/04 03:16:03;;;;;;;0.30;0.30;;;3.00;99.90;;;;;;4423673;32;20076;-60
2023/02/04 03:18:30;;;;;;;0.60;0.60;;;3.10;99.90;;;;;;4425419;32;20093;-59
2023/02/04 03:20:56;;;;;;;0.40;0.40;;;3.10;99.90;;;;;;4407426;32;20076;-61
2023/02/04 03:23:22;;;;;;;0.40;0.40;;;3.00;99.90;;;;;;4420506;32;20529;-61
2023/02/04 03:25:47;;;;;;;0.40;0.40;;;3.10;99.90;;;;;;4419069;32;20073;-60
2023/02/04 03:28:12;;;;;;;0.40;0.40;;;3.00;99.90;;;;;;4418992;32;20069;-61
2023/02/04 03:30:38;;;;;;;0.40;0.40;;;2.90;99.90;;;;;;4421968;32;20081;-59
2023/02/04 03:33:03;;;;;;;0.30;0.30;;;2.90;99.90;;;;;;4423162;32;20146;-61
2023/02/04 03:35:29;;;;;;;1.17;0.90;;;2.90;99.90;;;;;;4419759;32;20533;-61
2023/02/04 03:37:54;;;;;;;0.40;0.40;;;2.90;99.90;;;;;;4422864;32;20126;-60
2023/02/04 03:40:20;;;;;;;0.50;0.50;;;2.80;99.90;;;;;;4422727;32;20128;-61
2023/02/04 03:42:45;;;;;;;0.30;0.30;;;2.80;99.90;;;;;;4424486;32;20070;-61
2023/02/04 03:45:11;;;;;;;0.30;0.30;;;2.80;99.90;;;;;;4422983;32;20104;-61
2023/02/04 03:47:36;;;;;;;0.30;0.30;;;2.90;99.90;;;;;;4409258;32;20065;-61
2023/02/04 03:50:04;;;;;;;2.20;0.95;;;2.90;99.90;;;;;;4422061;32;20125;-60
2023/02/04 03:52:29;;;;;;;0.50;0.50;;;2.80;99.90;;;;;;4423090;32;20084;-62
2023/02/04 03:54:54;;;;;;;0.40;0.40;;;2.80;99.90;;;;;;4427198;32;20483;-60
2023/02/04 03:57:20;;;;;;;3.42;1.02;;;2.80;99.90;;;;;;4424598;32;20124;-61
2023/02/04 03:59:46;;;;;;;0.40;0.40;;;2.80;99.90;;;;;;4424431;32;20065;-61
2023/02/04 04:02:11;;;;;;;0.37;0.37;;;2.80;99.90;;;;;;4426393;32;20203;-61
2023/02/04 04:04:36;;;;;;;0.30;0.30;;;2.80;99.90;;;;;;4426014;32;20073;-59
2023/02/04 04:07:02;;;;;;;0.40;0.40;;;2.80;99.90;;;;;;4424621;32;20577;-60
2023/02/04 04:09:28;;;;;;;0.50;0.50;;;2.80;99.90;;;;;;4425450;32;20081;-62
2023/02/04 04:11:53;;;;;;;0.40;0.40;;;2.80;99.90;;;;;;4413500;32;20069;-60
2023/02/04 04:14:19;;;;;;;0.40;0.40;;;2.70;99.90;;;;;;4424848;32;20106;-61
2023/02/04 04:16:45;;;;;;;0.40;0.40;;;2.70;99.90;;;;;;4425066;32;20541;-60
2023/02/04 04:19:10;;;;;;;0.37;0.37;;;2.60;99.90;;;;;;4424939;32;20085;-61
2023/02/04 04:21:35;;;;;;;0.40;0.40;;;2.60;99.90;;;;;;4412215;32;20061;-61
2023/02/04 04:24:01;;;;;;;0.40;0.40;;;2.80;99.90;;;;;;4425832;32;21246;-61
2023/02/04 04:26:26;;;;;;;0.40;0.40;;;2.80;99.90;;;;;;4425031;32;20078;-61
2023/02/04 04:28:52;;;;;;;0.40;0.40;;;2.80;99.90;;;;;;4425743;32;20112;-60
2023/02/04 04:31:18;;;;;;;0.40;0.40;;;2.80;99.90;;;;;;4424576;32;20092;-61
2023/02/04 04:33:43;;;;;;;0.40;0.40;;;2.80;99.90;;;;;;4425750;32;20081;-60
2023/02/04 04:36:09;;;;;;;0.40;0.40;;;2.80;99.90;;;;;;4426044;32;20112;-60
2023/02/04 04:38:34;;;;;;;0.40;0.40;;;2.90;99.90;;;;;;4426002;32;20445;-61
2023/02/04 04:41:00;;;;;;;0.43;0.43;;;2.90;99.90;;;;;;4426099;32;20509;-61
2023/02/04 04:43:25;;;;;;;0.50;0.50;;;2.90;99.90;;;;;;4412146;32;20093;-62
2023/02/04 04:45:51;;;;;;;0.45;0.45;;;2.90;99.90;;;;;;4422310;32;20057;-61
2023/02/04 04:48:16;;;;;;;0.40;0.40;;;2.90;99.90;;;;;;4424154;32;20078;-61
2023/02/04 04:50:42;;;;;;;0.40;0.40;;;3.00;99.90;;;;;;4426492;32;20081;-60
2023/02/04 04:53:10;;;;;;;0.30;0.30;;;3.00;99.90;;;;;;4411676;32;20070;-61
2023/02/04 04:55:37;;;;;;;0.40;0.40;;;2.90;99.90;;;;;;4425823;32;20089;-61
2023/02/04 04:58:03;;;;;;;0.45;0.45;;;3.00;99.90;;;;;;4424202;32;20493;-60
2023/02/04 05:00:28;;;;;;;0.30;0.30;;;3.00;99.90;;;;;;4423726;32;20073;-60
2023/02/04 05:02:54;;;;;;;0.73;0.73;;;3.00;99.90;;;;;;4424604;32;20136;-62
2023/02/04 05:05:19;;;;;;;0.40;0.40;;;3.00;99.90;;;;;;4425623;32;20058;-61
2023/02/04 05:07:45;;;;;;;0.40;0.40;;;3.10;99.90;;;;;;4424575;32;20551;-61
2023/02/04 05:10:10;;;;;;;0.60;0.60;;;3.00;99.90;;;;;;4425767;32;20061;-61
2023/02/04 05:12:36;;;;;;;0.40;0.40;;;2.80;99.90;;;;;;4425358;32;20121;-61
2023/02/04 05:15:01;;;;;;;2.45;1.48;;;2.60;99.90;;;;;;4425844;32;20077;-61
2023/02/04 05:17:27;;;;;;;0.85;0.82;;;2.60;99.90;;;;;;4410772;32;20592;-60
2023/02/04 05:19:52;;;;;;;0.40;0.40;;;2.60;99.90;;;;;;4426167;32;20061;-62
2023/02/04 05:22:18;;;;;;;0.30;0.30;;;2.60;99.90;;;;;;4423852;32;20100;-61
2023/02/04 05:24:43;;;;;;;0.35;0.35;;;2.50;99.90;;;;;;4422808;32;20065;-61
2023/02/04 05:27:08;;;;;;;0.40;0.40;;;2.50;99.90;;;;;;4423263;32;20080;-60
2023/02/04 05:29:34;;;;;;;0.40;0.40;;;2.40;99.90;;;;;;4424567;32;20592;-61
2023/02/04 05:31:59;;;;;;;17.30;0.65;;;2.40;99.90;;;;;;4423735;32;20069;-60
2023/02/04 05:34:25;;;;;;;0.50;0.50;;;2.50;99.90;;;;;;4425573;32;20078;-61
2023/02/04 05:36:50;;;;;;;0.70;0.70;;;2.40;99.90;;;;;;4424494;32;20528;-61
2023/02/04 05:39:16;;;;;;;0.60;0.60;;;2.40;99.90;;;;;;4426043;32;20446;-61
2023/02/04 05:41:41;;;;;;;0.40;0.40;;;2.40;99.90;;;;;;4422933;32;20086;-61
2023/02/04 05:44:07;;;;;;;0.30;0.30;;;2.30;99.90;;;;;;4424406;32;20073;-60
2023/02/04 05:46:32;;;;;;;0.40;0.40;;;2.20;99.90;;;;;;4425498;32;20432;-60
2023/02/04 05:48:58;;;;;;;0.50;0.50;;;2.20;99.90;;;;;;4424885;32;20843;-61
2023/02/04 05:51:23;;;;;;;0.40;0.40;;;2.20;99.90;;;;;;4424850;32;20097;-61
2023/02/04 05:53:48;;;;;;;0.40;0.40;;;2.20;99.90;;;;;;4423724;32;20077;-62
2023/02/04 05:56:14;;;;;;;0.40;0.40;;;2.10;99.90;;;;;;4424299;32;20099;-60
2023/02/04 05:58:39;;;;;;;0.47;0.47;;;2.10;99.90;;;;;;4424572;32;20089;-62
2023/02/04 06:01:05;;;;;;;0.62;0.62;;;2.10;99.90;;;;;;4424543;32;20081;-61
2023/02/04 06:03:31;;;;;;;0.40;0.40;;;2.00;99.90;;;;;;4426150;32;20113;-61
2023/02/04 06:05:57;;;;;;;0.40;0.40;;;2.00;99.90;;;;;;4424800;32;20089;-61
2023/02/04 06:08:22;;;;;;;0.40;0.40;;;2.00;99.90;;;;;;4425769;32;20097;-60
2023/02/04 06:10:48;;;;;;;0.40;0.40;;;2.00;99.90;;;;;;4423592;32;20077;-61
2023/02/04 06:13:14;;;;;;;0.40;0.40;;;2.10;99.90;;;;;;4411293;32;20545;-59
2023/02/04 06:15:39;;;;;;;1.30;1.15;;;2.00;99.90;;;;;;4410327;32;20069;-61
2023/02/04 06:18:05;;;;;;;0.40;0.40;;;2.00;99.90;;;;;;4423442;32;20425;-60
2023/02/04 06:20:30;;;;;;;0.50;0.50;;;2.00;99.90;;;;;;4410922;32;20124;-61
2023/02/04 06:22:56;;;;;;;0.40;0.40;;;2.00;99.90;;;;;;4422588;32;20061;-61
2023/02/04 06:25:22;;;;;;;0.50;0.50;;;2.00;99.90;;;;;;4421764;32;20101;-61
2023/02/04 06:27:48;;;;;;;0.40;0.40;;;2.00;99.90;;;;;;4410141;32;20061;-60
2023/02/04 06:30:14;;;;;;;0.40;0.40;;;1.90;99.90;;;;;;4411511;32;20089;-61
2023/02/04 06:32:39;;;;;;;1.27;0.90;;;1.90;99.90;;;;;;4410092;32;20489;-61
2023/02/04 06:35:06;;;;;;;0.40;0.40;;;1.90;99.90;;;;;;4425144;32;20078;-61
2023/02/04 06:37:31;;;;;;;1.02;1.00;;;2.00;99.90;;;;;;4397747;32;20081;-60
2023/02/04 06:39:57;;;;;;;0.50;0.50;;;2.00;99.90;;;;;;4423889;32;20533;-61
2023/02/04 06:42:24;;;;;;;0.40;0.40;;;1.90;99.90;;;;;;4408599;32;20069;-60
2023/02/04 06:44:50;;;;;;;0.40;0.40;;;1.90;99.90;;;;;;4411726;32;21048;-61
2023/02/04 06:47:15;;;;;;;0.60;0.60;;;1.90;99.90;;;;;;4410524;32;20088;-62
2023/02/04 06:49:41;;;;;;;0.40;0.40;;;1.90;99.90;;;;;;4425506;32;20084;-59
2023/02/04 06:52:06;;;;;;;0.40;0.40;;;1.90;99.90;;;;;;4410439;32;20073;-59
2023/02/04 06:54:32;;;;;;;0.40;0.40;;;1.80;99.90;;;;;;4424859;32;20536;-59
2023/02/04 06:57:05;;;;;;;0.40;0.40;;;1.80;99.90;;;;;;4423236;32;20116;-61
2023/02/04 06:59:32;;;;;;;0.50;0.50;;;1.70;99.90;;;;;;4424885;32;20070;-61
2023/02/04 07:01:58;;;;;;;0.50;0.50;;;1.60;99.90;;;;;;4422406;32;20078;-58
2023/02/04 07:04:23;;;;;;;0.60;0.60;;;1.60;99.90;;;;;;4423362;32;20093;-60
2023/02/04 07:06:48;;;;;;;0.40;0.40;;;1.50;99.90;;;;;;4423080;32;20074;-60
2023/02/04 07:09:14;;;;;;;0.50;0.50;;;1.40;99.90;;;;;;4425140;32;20120;-60
2023/02/04 07:11:39;;;;;;;0.40;0.40;;;1.50;99.90;;;;;;4423980;32;20360;-60
2023/02/04 07:14:05;;;;;;;0.40;0.40;;;1.40;99.90;;;;;;4424940;32;20101;-61
2023/02/04 07:16:30;;;;;;;0.40;0.40;;;1.50;99.90;;;;;;4424084;32;20175;-61
2023/02/04 07:18:56;;;;;;;0.50;0.50;;;1.40;99.90;;;;;;4409832;32;20110;-59
2023/02/04 07:21:21;;;;;;;0.35;0.35;;;1.40;99.90;;;;;;4423057;32;20524;-61
2023/02/04 07:23:47;;;;;;;0.40;0.40;;;1.60;99.90;;;;;;4423729;32;20105;-61
2023/02/04 07:26:12;;;;;;;0.50;0.50;;;1.70;99.90;;;;;;4422261;32;20065;-61
2023/02/04 07:28:40;;;;;;;0.40;0.40;;;1.70;99.90;;;;;;4423560;32;20089;-60
2023/02/04 07:31:05;;;;;;;0.40;0.40;;;1.70;99.90;;;;;;4423545;32;20085;-61
2023/02/04 07:33:31;;;;;;;0.50;0.50;;;1.90;99.90;;;;;;4423330;32;20068;-61
2023/02/04 07:35:56;;;;;;;0.40;0.40;;;1.90;99.90;;;;;;4409551;32;20097;-61
2023/02/04 07:38:22;;;;;;;0.40;0.40;;;2.00;99.90;;;;;;4410418;32;20069;-61
2023/02/04 07:40:47;;;;;;;0.40;0.40;;;2.00;99.90;;;;;;4423127;32;20065;-61
2023/02/04 07:43:13;;;;;;;1.00;0.95;;;2.00;99.90;;;;;;4424286;32;20149;-61
2023/02/04 07:45:38;;;;;;;0.60;0.60;;;2.00;99.90;;;;;;4423170;32;20561;-61
2023/02/04 07:48:04;;;;;;;0.50;0.50;;;2.10;99.90;;;;;;4424098;32;20498;-61
2023/02/04 07:50:29;;;;;;;0.43;0.43;;;2.10;99.90;;;;;;4424132;32;20134;-61
2023/02/04 07:52:55;;;;;;;0.40;0.40;;;2.10;99.90;;;;;;4424055;32;20065;-61
2023/02/04 07:55:20;;;;;;;0.50;0.50;;;2.10;99.90;;;;;;4425187;32;20077;-61
2023/02/04 07:57:46;;;;;;;0.40;0.40;;;2.10;99.90;;;;;;4423380;32;20061;-60
2023/02/04 08:00:13;;;;;;;0.80;0.80;;;2.20;99.90;;;;;;4422511;32;20578;-61
2023/02/04 08:02:40;;;;;;;0.40;0.40;;;2.40;99.90;;;;;;4420823;32;20118;-60
2023/02/04 08:05:06;;;;;;;0.50;0.50;;;2.50;99.90;;;;;;4423034;32;20062;-61
2023/02/04 08:07:31;;;;;;;0.55;0.55;;;2.50;99.90;;;;;;4422709;32;20093;-61
2023/02/04 08:09:56;;;;;;;0.40;0.40;;;2.60;99.90;;;;;;4423220;32;20164;-60
2023/02/04 08:12:22;;;;;;;0.60;0.60;;;2.60;99.90;;;;;;4423174;32;20069;-61
2023/02/04 08:14:47;;;;;;;0.75;0.75;;;2.80;99.90;;;;;;4423304;32;20446;-61
2023/02/04 08:17:13;;;;;;;1.70;1.15;;;2.80;99.90;;;;;;4421515;32;20086;-60
2023/02/04 08:19:38;;;;;;;0.47;0.47;;;2.90;99.90;;;;;;4423232;32;20061;-59
2023/02/04 08:22:04;;;;;;;0.40;0.40;;;2.90;99.90;;;;;;4422967;32;20100;-61
2023/02/04 08:24:29;;;;;;;0.40;0.40;;;3.00;99.90;;;;;;4422443;32;20061;-60
2023/02/04 08:26:54;;;;;;;0.60;0.60;;;3.10;99.90;;;;;;4423325;32;20072;-61
2023/02/04 08:29:20;;;;;;;0.65;0.65;;;3.10;99.90;;;;;;4423128;32;20439;-61
2023/02/04 08:31:46;;;;;;;0.40;0.40;;;3.10;99.90;;;;;;4407965;32;20077;-61
2023/02/04 08:34:12;;;;;;;0.50;0.50;;;3.20;99.90;;;;;;4423168;32;20528;-60
2023/02/04 08:36:37;;;;;;;0.45;0.45;;;3.30;99.90;;;;;;4408314;32;20140;-60
2023/02/04 08:39:03;;;;;;;0.40;0.40;;;3.30;99.90;;;;;;4423504;32;20058;-62
2023/02/04 08:41:28;;;;;;;0.50;0.50;;;3.30;99.90;;;;;;4425165;32;20069;-61
2023/02/04 08:43:54;;;;;;;0.65;0.50;;;3.50;99.90;;;;;;4424565;32;20439;-61
2023/02/04 08:46:19;;;;;;;0.30;0.30;;;3.50;99.90;;;;;;4424172;32;20081;-60
2023/02/04 08:48:45;;;;;;;0.40;0.40;;;3.60;99.90;;;;;;4412413;32;20074;-61
2023/02/04 08:51:10;;;;;;;0.30;0.30;;;3.60;99.90;;;;;;4425797;32;20105;-61
2023/02/04 08:53:36;;;;;;;0.40;0.40;;;3.70;99.90;;;;;;4411446;32;20069;-61
2023/02/04 08:56:02;;;;;;;0.40;0.40;;;3.60;99.90;;;;;;4412011;32;20126;-61
2023/02/04 08:58:27;;;;;;;0.40;0.40;;;3.70;99.90;;;;;;4425298;32;20121;-62
2023/02/04 09:00:53;;;;;;;2.85;1.42;;;3.70;99.90;;;;;;4425195;32;20528;-61
2023/02/04 09:03:18;;;;;;;0.40;0.40;;;3.80;99.90;;;;;;4424780;32;20085;-62
2023/02/04 09:05:44;;;;;;;0.40;0.40;;;3.90;99.90;;;;;;4426283;32;20066;-60
2023/02/04 09:08:09;;;;;;;1.45;1.02;;;3.90;99.90;;;;;;4424848;32;20116;-61
2023/02/04 09:10:35;;;;;;;0.40;0.40;;;4.00;99.90;;;;;;4423340;32;20077;-61
2023/02/04 09:13:00;;;;;;;0.40;0.40;;;4.10;99.90;;;;;;4424847;32;20062;-61
2023/02/04 09:15:26;;;;;;;0.40;0.40;;;4.10;99.90;;;;;;4424937;32;20485;-60
2023/02/04 09:17:54;;;;;;;0.40;0.40;;;4.20;99.90;;;;;;4411402;32;20061;-61
2023/02/04 09:20:20;;;;;;;0.40;0.40;;;4.30;99.90;;;;;;4411472;32;20068;-61
2023/02/04 09:22:47;;;;;;;0.65;0.62;;;4.40;99.90;;;;;;4423236;32;20085;-61
2023/02/04 09:25:12;;;;;;;0.40;0.40;;;4.60;99.90;;;;;;4424315;32;20356;-62
2023/02/04 09:27:38;;;;;;;0.40;0.40;;;4.70;99.90;;;;;;4424454;32;20154;-62
2023/02/04 09:30:04;;;;;;;0.30;0.30;;;4.80;99.90;;;;;;4424949;32;20442;-61
2023/02/04 09:32:30;;;;;;;0.40;0.40;;;5.10;99.90;;;;;;4410367;32;20060;-61
2023/02/04 09:34:55;;;;;;;0.40;0.40;;;5.10;99.90;;;;;;4424149;32;20123;-62
2023/02/04 09:37:20;;;;;;;0.62;0.62;;;5.20;99.90;;;;;;4423017;32;20452;-61
2023/02/04 09:39:46;;;;;;;0.30;0.30;;;5.30;99.90;;;;;;4425041;32;20068;-61
2023/02/04 09:42:14;;;;;;;0.75;0.68;;;5.50;99.90;;;;;;4424368;32;20078;-61
2023/02/04 09:44:40;;;;;;;0.32;0.32;;;5.60;99.90;;;;;;4410587;32;20127;-62
2023/02/04 09:47:05;;;;;;;0.40;0.40;;;5.80;99.90;;;;;;4423024;32;20145;-60
2023/02/04 09:49:31;;;;;;;0.40;0.40;;;5.90;99.90;;;;;;4424712;32;20077;-60
2023/02/04 09:51:57;;;;;;;0.40;0.40;;;5.90;99.90;;;;;;4422952;32;20116;-61
2023/02/04 09:54:23;;;;;;;2.90;0.70;;;6.00;99.90;;;;;;4411488;32;20160;-61
2023/02/04 09:56:50;;;;;;;0.93;0.88;;;6.00;99.90;;;;;;4424063;32;20069;-60
2023/02/04 09:59:20;;;;;;;0.40;0.40;;;5.90;99.90;;;;;;4410790;32;20108;-61
2023/02/04 10:02:09;;;;;;;0.93;0.88;;;5.80;99.90;;;;;;4407657;32;20089;-60
2023/02/04 10:04:35;;;;;;;0.40;0.40;;;5.60;99.90;;;;;;4412473;32;20066;-62
2023/02/04 10:07:02;;;;;;;0.40;0.40;;;5.50;99.90;;;;;;4423241;32;20094;-61
2023/02/04 10:09:28;;;;;;;0.40;0.40;;;5.50;99.90;;;;;;4424373;32;20069;-62
2023/02/04 10:11:53;;;;;;;0.93;0.93;;;5.40;99.90;;;;;;4423723;32;20101;-62
2023/02/04 10:14:21;;;;;;;0.40;0.40;;;5.50;99.90;;;;;;4411186;32;20081;-61
2023/02/04 10:16:53;;;;;;;3.03;1.85;;;5.60;99.90;;;;;;4406762;32;20112;-61
2023/02/04 10:19:19;;;;;;;0.30;0.30;;;5.70;99.90;;;;;;4407961;32;20115;-62
2023/02/04 10:21:45;;;;;;;0.32;0.32;;;5.70;99.90;;;;;;4410051;32;20116;-61
2023/02/04 10:24:16;;;;;;;0.25;0.25;;;5.60;99.90;;;;;;4411235;32;20069;-61
2023/02/04 10:26:42;;;;;;;1.02;0.68;;;5.50;99.90;;;;;;4425971;32;20116;-61
2023/02/04 10:29:14;;;;;;;0.50;0.50;;;5.40;99.90;;;;;;4423959;32;20101;-62
2023/02/04 10:31:42;;;;;;;0.30;0.30;;;5.30;99.90;;;;;;4409182;32;20073;-61
2023/02/04 10:34:15;;;;;;;0.60;0.60;;;5.40;99.90;;;;;;4409460;32;20097;-62
2023/02/04 10:36:44;;;;;;;0.30;0.30;;;5.50;99.90;;;;;;4424614;32;20091;-62
2023/02/04 10:39:13;;;;;;;0.45;0.45;;;5.70;99.90;;;;;;4425652;32;20069;-62
2023/02/04 10:41:48;;;;;;;0.40;0.40;;;5.90;99.90;;;;;;4423878;32;20056;-60
2023/02/04 10:44:16;;;;;;;0.32;0.32;;;5.60;99.90;;;;;;4411569;32;20116;-61
2023/02/04 10:46:42;;;;;;;0.40;0.40;;;5.60;99.90;;;;;;4408949;32;20085;-62
2023/02/04 10:49:24;;;;;;;0.50;0.50;;;5.70;99.90;;;;;;4409600;32;20105;-61
2023/02/04 10:51:51;;;;;;;0.40;0.40;;;5.90;99.90;;;;;;4409766;32;20073;-61
2023/02/04 10:54:34;;;;;;;0.35;0.35;;;6.00;99.90;;;;;;4411497;32;20081;-61
2023/02/04 10:57:24;;;;;;;0.30;0.30;;;6.10;99.90;;;;;;4423247;32;20077;-61
2023/02/04 10:59:54;;;;;;;0.40;0.40;;;6.00;99.90;;;;;;4424534;32;20608;-60
2023/02/04 11:02:41;;;;;;;0.40;0.40;;;5.90;99.90;;;;;;4424865;32;20085;-62
2023/02/04 11:05:13;;;;;;;0.40;0.40;;;5.90;99.90;;;;;;4412154;32;20057;-61
2023/02/04 11:07:39;;;;;;;0.40;0.40;;;6.00;99.90;;;;;;4408606;32;20116;-61
2023/02/04 11:10:05;;;;;;;0.30;0.30;;;6.20;99.90;;;;;;4411409;32;20064;-61
2023/02/04 11:12:52;;;;;;;0.37;0.37;;;6.50;99.90;;;;;;4424632;32;20056;-62
2023/02/04 11:15:39;;;;;;;0.30;0.30;;;6.30;99.90;;;;;;4414981;32;20089;-60
2023/02/04 11:18:08;;;;;;;0.90;0.75;;;6.20;99.90;;;;;;4412311;32;20100;-62
2023/02/04 11:20:38;;;;;;;0.30;0.30;;;6.30;99.90;;;;;;4396232;32;20066;-60
2023/02/04 11:23:15;;;;;;;0.50;0.50;;;6.30;99.90;;;;;;4422634;32;20073;-61
2023/02/04 11:25:41;;;;;;;0.40;0.40;;;6.30;99.90;;;;;;4412036;32;20552;-60
2023/02/04 11:28:23;;;;;;;0.30;0.30;;;6.40;99.90;;;;;;4408647;32;20090;-61
2023/02/04 11:30:59;;;;;;;1.10;0.73;;;6.50;99.90;;;;;;4423276;32;20132;-61
2023/02/04 11:33:38;;;;;;;0.30;0.30;;;6.70;99.90;;;;;;4410058;32;20095;-61
2023/02/04 11:36:06;;;;;;;0.40;0.40;;;6.70;99.90;;;;;;4409906;32;20085;-61
2023/02/04 11:38:32;;;;;;;0.40;0.40;;;6.50;99.90;;;;;;4409365;32;20204;-60
2023/02/04 11:40:59;;;;;;;0.40;0.40;;;6.40;99.90;;;;;;4422591;32;20065;-61
2023/02/04 11:43:25;;;;;;;0.77;0.77;;;6.20;99.90;;;;;;4408551;32;77093;-61
2023/02/04 11:46:12;;;;;;;0.32;0.32;;;6.00;99.90;;;;;;4409780;32;20053;-61
2023/02/04 11:48:38;;;;;;;0.30;0.30;;;6.20;99.90;;;;;;4411905;32;20081;-61
2023/02/04 11:51:11;;;;;;;0.35;0.35;;;6.20;99.90;;;;;;4410279;32;20081;-61
2023/02/04 11:53:37;;;;;;;0.30;0.30;;;6.10;99.90;;;;;;4408079;32;20106;-60
2023/02/04 11:56:02;;;;;;;10.23;0.57;;;6.00;99.90;;;;;;4425733;32;20080;-61
2023/02/04 11:58:29;;;;;;;0.35;0.35;;;5.90;99.90;;;;;;4423465;32;20408;-61
2023/02/04 12:00:55;;;;;;;0.30;0.30;;;5.90;99.90;;;;;;4409008;32;20529;-62
2023/02/04 12:03:28;;;;;;;0.30;0.30;;;5.80;99.90;;;;;;4421958;32;20057;-59
2023/02/04 12:05:54;;;;;;;0.40;0.40;;;5.80;99.90;;;;;;4423340;32;20076;-61
2023/02/04 12:08:23;;;;;;;0.30;0.30;;;5.80;99.90;;;;;;4424093;32;20571;-61
2023/02/04 12:10:59;;;;;;;0.40;0.40;;;5.70;99.90;;;;;;4421688;32;20136;-60
2023/02/04 12:13:25;;;;;;;0.50;0.50;;;5.70;99.90;;;;;;4422284;32;20061;-61
2023/02/04 12:15:58;;;;;;;0.40;0.40;;;5.60;99.90;;;;;;4413499;32;20080;-61
2023/02/04 12:18:26;;;;;;;0.30;0.30;;;5.40;99.90;;;;;;4412244;32;20356;-61
2023/02/04 12:20:52;;;;;;;0.40;0.40;;;5.30;99.90;;;;;;4410173;32;20596;-60
2023/02/04 12:23:18;;;;;;;0.30;0.30;;;5.30;99.90;;;;;;4410101;32;20085;-61
2023/02/04 12:25:43;;;;;;;0.40;0.40;;;5.30;99.90;;;;;;4426106;32;20294;-61
2023/02/04 12:28:09;;;;;;;0.40;0.40;;;5.30;99.90;;;;;;4422821;32;20116;-61
2023/02/04 12:30:35;;;;;;;0.30;0.30;;;5.40;99.90;;;;;;4426594;32;20066;-61
2023/02/04 12:33:00;;;;;;;0.30;0.30;;;5.40;99.90;;;;;;4426373;32;20557;-61
2023/02/04 12:35:26;;;;;;;0.40;0.40;;;5.50;99.90;;;;;;4425434;32;20066;-61
2023/02/04 12:37:51;;;;;;;0.30;0.30;;;5.50;99.90;;;;;;4421765;32;20176;-61
2023/02/04 12:40:19;;;;;;;0.30;0.30;;;5.60;99.90;;;;;;4424628;32;20090;-61
2023/02/04 12:42:45;;;;;;;0.30;0.30;;;5.50;99.90;;;;;;4413086;32;20072;-61
2023/02/04 12:45:13;;;;;;;0.30;0.30;;;5.50;99.90;;;;;;4425298;32;20069;-61
2023/02/04 12:47:38;;;;;;;0.30;0.30;;;5.60;99.90;;;;;;4410069;32;20121;-61
2023/02/04 12:50:05;;;;;;;0.30;0.30;;;5.50;99.90;;;;;;4424449;32;20086;-61
2023/02/04 12:52:30;;;;;;;0.40;0.40;;;5.50;99.90;;;;;;4409308;32;20089;-61
2023/02/04 12:54:56;;;;;;;0.30;0.30;;;5.60;99.90;;;;;;4411915;32;20453;-61